Terminal Aerodrome Forecast
Issued by NWS

Home | Current Version | Previous Version | Text Only | Print | Product List | Glossary On
Versions: 1 2 3 4 5 6 7 8 9 10 11 12 13 14 15 16 17 18 19
000
FTUS43 KJKL 152326
TAFSME
TAF
KSME 152326Z 1600/1624 VRB03KT P6SM SCT035 SCT150
     FM160400 00000KT 3SM BR SKC
     FM160800 00000KT 1/2SM FG SCT005
     FM161300 VRB03KT P6SM FEW010 BKN040
     FM161800 VRB03KT P6SM VCTS BKN040CB=

USA.gov is the U.S. government's official web portal to all federal, state and local government web resources and services.